Time;durP1;ratioP1;P1;durP2;ratioP2;P2;SDS_P1;SDS_P2;PMS_P1;PMS_P2;Temp;Humidity;BMP_temperature;BMP_pressure;BME280_temperature;BME280_humidity;BME280_pressure;Samples;Min_cycle;Max_cycle;Signal;HPM_P1;HPM_P2
2022/06/19 00:02:24;;;;;;;1.98;1.80;;;;;;;24.40;46.53;101782.94;1713213;83;20997;-53
2022/06/19 00:04:54;;;;;;;1.60;1.50;;;;;;;24.38;46.47;101784.02;1709408;83;21074;-51
2022/06/19 00:07:22;;;;;;;2.00;1.80;;;;;;;24.36;46.29;101783.25;1715679;83;21098;-51
2022/06/19 00:09:48;;;;;;;1.80;1.70;;;;;;;24.35;46.38;101784.19;1713597;83;21023;-51
2022/06/19 00:12:16;;;;;;;1.70;1.60;;;;;;;24.30;46.64;101776.99;1702770;83;21030;-49
2022/06/19 00:14:43;;;;;;;2.25;1.62;;;;;;;24.34;46.82;101787.82;1712287;83;21030;-51
2022/06/19 00:17:11;;;;;;;2.83;1.80;;;;;;;24.34;46.97;101786.48;1710409;83;21049;-49
2022/06/19 00:19:39;;;;;;;2.00;1.90;;;;;;;24.33;47.05;101791.41;1707332;82;22061;-51
2022/06/19 00:22:07;;;;;;;2.37;1.90;;;;;;;24.33;47.05;101791.41;1709111;83;21475;-50
2022/06/19 00:24:34;;;;;;;2.12;1.92;;;;;;;24.30;47.15;101787.13;1708807;83;20998;-52
2022/06/19 00:27:02;;;;;;;2.25;2.05;;;;;;;24.29;47.50;101792.55;1742040;80;21037;-55
2022/06/19 00:29:28;;;;;;;3.37;1.82;;;;;;;24.25;47.73;101784.75;1741699;81;21519;-52
2022/06/19 00:31:56;;;;;;;2.83;1.70;;;;;;;24.24;47.89;101781.73;1740719;81;21018;-49
2022/06/19 00:34:22;;;;;;;2.08;1.67;;;;;;;24.23;47.72;101780.00;1741600;81;21514;-54
2022/06/19 00:36:50;;;;;;;1.92;1.72;;;;;;;24.20;47.31;101788.19;1741445;81;21038;-52
2022/06/19 00:39:18;;;;;;;1.98;1.75;;;;;;;24.18;47.50;101786.10;1743607;81;21490;-52
2022/06/19 00:41:45;;;;;;;1.80;1.70;;;;;;;24.17;47.67;101788.37;1708852;83;21029;-49
2022/06/19 00:44:13;;;;;;;1.80;1.70;;;;;;;24.14;47.73;101789.91;1707946;83;21096;-51
2022/06/19 00:46:54;;;;;;;2.17;1.80;;;;;;;24.13;47.93;101790.00;1705632;83;22089;-50
2022/06/19 00:49:28;;;;;;;2.10;1.73;;;;;;;24.11;47.87;101786.09;1705308;83;21042;-51
2022/06/19 00:52:04;;;;;;;2.62;2.00;;;;;;;24.11;47.91;101790.08;1706864;83;21717;-49
2022/06/19 00:54:45;;;;;;;2.67;1.67;;;;;;;24.11;47.68;101789.25;1729538;81;21046;-52
2022/06/19 00:57:12;;;;;;;1.85;1.75;;;;;;;24.10;47.59;101792.38;1656123;85;21101;-52
2022/06/19 00:59:39;;;;;;;3.25;2.00;;;;;;;24.08;47.54;101797.40;1656125;87;21553;-52
2022/06/19 01:02:06;;;;;;;2.10;1.90;;;;;;;24.03;47.72;101792.36;1656033;87;21041;-51
2022/06/19 01:04:45;;;;;;;1.70;1.60;;;;;;;24.03;47.72;101792.36;1655692;87;21089;-52
2022/06/19 01:07:12;;;;;;;2.60;1.80;;;;;;;24.05;47.72;101793.12;1600705;90;21129;-50
2022/06/19 01:09:40;;;;;;;2.00;1.80;;;;;;;24.05;47.87;101800.27;1595206;90;21094;-52
2022/06/19 01:12:08;;;;;;;2.00;1.80;;;;;;;24.02;47.50;101793.75;1600797;90;21062;-50
2022/06/19 01:14:37;;;;;;;2.15;2.00;;;;;;;24.03;47.40;101799.00;1590448;90;21517;-49
2022/06/19 01:17:04;;;;;;;3.42;2.02;;;;;;;24.03;47.40;101799.00;1600630;90;21101;-51
2022/06/19 01:19:36;;;;;;;2.85;2.00;;;;;;;24.03;47.55;101797.67;1603185;88;21101;-49
2022/06/19 01:22:19;;;;;;;2.05;1.90;;;;;;;23.97;47.50;101790.04;1555200;91;21163;-51
2022/06/19 01:25:12;;;;;;;1.90;1.77;;;;;;;23.97;47.50;101790.04;1549284;93;21606;-57
2022/06/19 01:30:45;;;;;;;2.25;2.00;;;;;;;23.92;47.47;101795.27;1548857;93;21087;-51
2022/06/19 01:33:20;;;;;;;2.05;1.95;;;;;;;23.88;47.77;101798.59;1549298;93;21039;-51
2022/06/19 01:35:48;;;;;;;2.00;1.80;;;;;;;23.86;48.17;101803.15;1555233;92;21119;-50
2022/06/19 01:38:18;;;;;;;1.87;1.72;;;;;;;23.85;48.48;101796.11;1574715;91;21062;-51
2022/06/19 01:40:49;;;;;;;1.77;1.67;;;;;;;23.84;48.55;101797.07;1604786;89;21129;-48
2022/06/19 01:43:17;;;;;;;2.25;2.00;;;;;;;23.83;48.67;101801.12;1533997;93;21055;-49
2022/06/19 01:45:48;;;;;;;2.47;2.25;;;;;;;23.83;48.65;101801.98;1533906;93;21064;-50
2022/06/19 01:48:15;;;;;;;4.17;2.08;;;;;;;23.85;48.62;101803.22;1534343;93;21059;-50
2022/06/19 01:50:43;;;;;;;2.50;2.30;;;;;;;23.84;48.42;101805.05;1534064;93;21104;-51
2022/06/19 01:53:21;;;;;;;2.35;2.15;;;;;;;23.83;48.50;101805.98;1545645;90;21088;-53
2022/06/19 01:55:48;;;;;;;2.33;1.85;;;;;;;23.84;48.76;101809.50;1579701;90;21045;-53
2022/06/19 01:58:15;;;;;;;2.30;2.10;;;;;;;23.82;48.79;101814.88;1575936;90;21090;-51
2022/06/19 02:00:43;;;;;;;2.25;2.00;;;;;;;23.79;49.21;101816.41;1588441;89;21106;-53
2022/06/19 02:03:27;;;;;;;2.15;1.95;;;;;;;23.79;49.21;101816.41;1592318;89;21027;-50
2022/06/19 02:05:53;;;;;;;3.12;2.12;;;;;;;23.78;49.28;101821.33;1626740;86;21086;-51
2022/06/19 02:08:20;;;;;;;2.05;1.92;;;;;;;23.78;49.20;101820.00;1624589;86;21436;-53
2022/06/19 02:10:47;;;;;;;2.20;2.10;;;;;;;23.76;48.93;101828.55;1623489;86;21034;-53
2022/06/19 02:13:16;;;;;;;4.03;2.25;;;;;;;23.72;48.66;101831.00;1612374;87;21067;-50
2022/06/19 02:15:44;;;;;;;2.40;2.20;;;;;;;23.72;48.66;101831.00;1626346;86;21130;-51
2022/06/19 02:18:19;;;;;;;3.15;2.15;;;;;;;23.71;48.75;101841.27;1626698;86;21063;-53
2022/06/19 02:20:46;;;;;;;2.65;2.47;;;;;;;23.69;48.90;101839.64;1610468;86;21091;-50
2022/06/19 02:23:13;;;;;;;3.40;2.22;;;;;;;23.66;49.07;101834.52;1659982;85;21086;-51
2022/06/19 02:25:40;;;;;;;2.58;2.37;;;;;;;23.63;49.10;101840.86;1655569;85;21082;-51
2022/06/19 02:28:08;;;;;;;3.02;2.33;;;;;;;23.58;49.08;101829.63;1655507;85;21070;-51
2022/06/19 02:30:35;;;;;;;2.55;2.35;;;;;;;23.57;49.17;101837.24;1656093;85;21050;-50
2022/06/19 02:33:02;;;;;;;2.50;2.30;;;;;;;23.52;49.22;101837.97;1655192;85;21054;-50
2022/06/19 02:35:30;;;;;;;2.58;2.27;;;;;;;23.50;49.44;101833.22;1658132;85;21070;-55
2022/06/19 02:37:56;;;;;;;2.42;2.22;;;;;;;23.48;49.59;101835.11;1660391;85;21047;-49
2022/06/19 02:40:32;;;;;;;2.60;2.40;;;;;;;23.47;49.77;101833.41;1699627;83;21018;-51
2022/06/19 02:42:59;;;;;;;2.70;2.50;;;;;;;23.49;49.82;101834.17;1687248;84;21081;-52
2022/06/19 02:45:29;;;;;;;2.80;2.52;;;;;;;23.48;49.83;101833.78;1747391;81;21042;-53
2022/06/19 02:47:57;;;;;;;2.90;2.57;;;;;;;23.48;50.03;101835.11;1707806;83;21041;-49
2022/06/19 02:50:28;;;;;;;2.60;2.42;;;;;;;23.49;50.20;101844.80;1705979;83;21699;-52
2022/06/19 02:52:55;;;;;;;4.20;2.83;;;;;;;23.51;50.46;101843.37;1706109;83;21061;-52
2022/06/19 02:55:22;;;;;;;3.42;2.42;;;;;;;23.52;50.66;101850.39;1705836;83;21486;-55
2022/06/19 02:57:49;;;;;;;3.00;2.70;;;;;;;23.50;50.68;101847.83;1699425;83;21554;-50
2022/06/19 03:00:20;;;;;;;4.72;2.70;;;;;;;23.51;50.96;101856.20;1741265;81;20987;-49
2022/06/19 03:02:51;;;;;;;3.22;2.92;;;;;;;23.51;51.11;101856.66;1741100;81;20991;-51
2022/06/19 03:05:22;;;;;;;2.90;2.70;;;;;;;23.52;51.28;101858.36;1741469;81;21018;-50
2022/06/19 03:07:50;;;;;;;3.15;2.62;;;;;;;23.53;51.27;101862.28;1741853;81;21006;-51
2022/06/19 03:10:17;;;;;;;2.67;2.33;;;;;;;23.52;50.80;101852.58;1734827;82;21050;-52
2022/06/19 03:12:46;;;;;;;2.60;2.40;;;;;;;23.51;50.72;101858.86;1744646;81;20963;-50
2022/06/19 03:15:14;;;;;;;3.20;2.98;;;;;;;23.50;50.54;101861.58;1742669;81;21026;-51
2022/06/19 03:17:41;;;;;;;2.75;2.42;;;;;;;23.48;50.69;101868.31;1705819;83;21030;-56
2022/06/19 03:20:10;;;;;;;2.95;2.60;;;;;;;23.47;50.64;101868.41;1704789;83;21097;-51
2022/06/19 03:22:39;;;;;;;2.80;2.60;;;;;;;23.45;50.67;101862.70;1705724;83;21046;-52
2022/06/19 03:25:07;;;;;;;2.95;2.75;;;;;;;23.45;50.74;101868.51;1705665;83;21542;-50
2022/06/19 03:27:34;;;;;;;2.90;2.70;;;;;;;23.44;50.78;101866.78;1707810;83;21505;-51
2022/06/19 03:30:01;;;;;;;2.83;2.62;;;;;;;23.45;50.71;101867.18;1744055;81;21025;-50
2022/06/19 03:32:28;;;;;;;2.87;2.67;;;;;;;23.44;50.75;101866.78;1743904;81;21065;-51
2022/06/19 03:34:54;;;;;;;3.17;2.90;;;;;;;23.43;50.66;101865.09;1741363;81;21566;-51
2022/06/19 03:37:22;;;;;;;3.22;3.00;;;;;;;23.42;50.72;101866.02;1718218;81;21038;-52
2022/06/19 03:39:48;;;;;;;3.50;2.92;;;;;;;23.38;50.55;101866.67;1745226;82;21015;-51
2022/06/19 03:42:16;;;;;;;2.90;2.65;;;;;;;23.40;50.70;101865.25;1738589;81;21000;-49
2022/06/19 03:44:43;;;;;;;2.92;2.72;;;;;;;23.47;50.89;101869.27;1741432;81;21042;-51
2022/06/19 03:47:11;;;;;;;3.02;2.77;;;;;;;23.72;50.78;101869.53;1740960;81;21063;-49
2022/06/19 03:49:38;;;;;;;2.90;2.70;;;;;;;24.11;49.92;101860.55;1741196;80;21062;-53
2022/06/19 03:52:07;;;;;;;3.20;3.00;;;;;;;24.61;48.68;101864.09;1744033;82;21057;-51
2022/06/19 03:54:34;;;;;;;2.62;2.42;;;;;;;25.58;46.94;101861.33;1748073;81;21002;-52
2022/06/19 03:57:01;;;;;;;2.27;2.17;;;;;;;25.58;46.94;101861.33;1705420;83;21058;-49
2022/06/19 03:59:28;;;;;;;2.87;2.60;;;;;;;26.06;46.00;101869.16;1706047;83;21034;-53
2022/06/19 04:01:56;;;;;;;2.80;2.50;;;;;;;26.43;44.75;101866.15;1705689;83;21021;-50
2022/06/19 04:04:23;;;;;;;2.60;2.45;;;;;;;26.65;43.85;101867.66;1737932;81;21089;-53
2022/06/19 04:06:52;;;;;;;2.77;2.58;;;;;;;26.69;43.64;101867.81;1744227;81;21046;-50
2022/06/19 04:09:20;;;;;;;3.55;3.22;;;;;;;26.61;43.77;101867.51;1740081;82;21006;-51
2022/06/19 04:11:47;;;;;;;3.20;2.90;;;;;;;26.51;43.86;101877.13;1731204;81;21537;-52
2022/06/19 04:14:15;;;;;;;2.62;2.42;;;;;;;26.47;43.86;101880.98;1744454;81;20999;-51
2022/06/19 04:16:45;;;;;;;2.83;2.58;;;;;;;26.51;43.70;101884.67;1740119;82;21025;-53
2022/06/19 04:19:12;;;;;;;2.72;2.52;;;;;;;26.54;43.67;101880.94;1704488;83;21113;-49
2022/06/19 04:21:43;;;;;;;2.62;2.45;;;;;;;26.50;43.81;101888.28;1699186;83;21058;-52
2022/06/19 04:24:14;;;;;;;3.62;2.90;;;;;;;26.39;44.05;101888.67;1714526;83;20994;-50
2022/06/19 04:26:41;;;;;;;2.75;2.55;;;;;;;26.21;44.19;101895.30;1744748;81;21490;-49
2022/06/19 04:29:09;;;;;;;3.10;2.80;;;;;;;26.01;44.36;101899.28;1708365;83;21558;-52
2022/06/19 04:31:36;;;;;;;2.95;2.75;;;;;;;25.82;44.81;101893.00;1712012;83;21014;-51
2022/06/19 04:34:03;;;;;;;3.08;2.75;;;;;;;25.64;45.25;101894.23;1707634;83;21035;-52
2022/06/19 04:36:30;;;;;;;3.40;3.10;;;;;;;25.47;45.37;101893.16;1708184;83;21030;-52
2022/06/19 04:38:57;;;;;;;3.05;2.75;;;;;;;25.31;45.58;101900.41;1708533;83;21042;-51
2022/06/19 04:41:31;;;;;;;3.12;2.92;;;;;;;25.17;46.07;101889.80;1743744;81;21026;-50
2022/06/19 04:43:58;;;;;;;3.00;2.80;;;;;;;25.09;46.28;101892.11;1742549;81;20991;-53
2022/06/19 04:46:25;;;;;;;3.05;2.83;;;;;;;24.96;46.48;101893.84;1693157;83;21049;-50
2022/06/19 04:48:52;;;;;;;3.02;2.80;;;;;;;24.96;46.48;101893.84;1744534;81;21034;-51
2022/06/19 04:51:21;;;;;;;3.25;2.95;;;;;;;24.90;46.63;101883.58;1743974;81;21019;-49
2022/06/19 04:53:49;;;;;;;3.30;3.02;;;;;;;24.88;46.90;101888.14;1741462;81;21038;-49
2022/06/19 04:56:18;;;;;;;4.45;3.10;;;;;;;24.87;47.24;101886.45;1741451;81;21015;-52
2022/06/19 04:58:46;;;;;;;3.35;2.80;;;;;;;24.89;47.27;101892.53;1705700;83;21526;-50
2022/06/19 05:01:31;;;;;;;2.87;2.67;;;;;;;24.94;47.29;101887.75;1705671;83;21065;-53
2022/06/19 05:04:00;;;;;;;3.60;2.92;;;;;;;24.98;47.02;101895.45;1705819;83;21025;-52
2022/06/19 05:06:27;;;;;;;3.08;2.77;;;;;;;25.07;46.96;101902.01;1705805;83;21069;-50
2022/06/19 05:08:54;;;;;;;3.17;2.80;;;;;;;25.19;46.86;101901.22;1706480;83;21525;-52
2022/06/19 05:11:22;;;;;;;3.20;3.00;;;;;;;25.35;46.48;101909.92;1705794;83;20962;-52
2022/06/19 05:13:50;;;;;;;2.90;2.70;;;;;;;25.54;46.26;101913.12;1707563;83;21053;-55
2022/06/19 05:16:23;;;;;;;2.83;2.62;;;;;;;25.73;45.74;101914.97;1731168;81;21542;-51
2022/06/19 05:18:51;;;;;;;;;;;;;;;25.96;45.23;101920.09;1708197;83;21069;-53
2022/06/19 05:21:18;;;;;;;2.75;2.60;;;;;;;26.21;44.87;101927.31;1687087;84;20129;-50
2022/06/19 05:23:46;;;;;;;2.92;2.70;;;;;;;26.43;44.26;101928.39;1700877;84;21023;-51
2022/06/19 05:26:20;;;;;;;3.22;2.80;;;;;;;26.69;43.80;101933.23;1701007;82;21034;-51
2022/06/19 05:28:48;;;;;;;3.08;2.87;;;;;;;26.94;43.13;101931.91;1667221;85;21103;-54
2022/06/19 05:31:17;;;;;;;3.20;3.00;;;;;;;27.11;42.83;101922.67;1665337;85;21038;-50
2022/06/19 05:33:44;;;;;;;2.80;2.60;;;;;;;27.24;42.09;101923.50;1664260;85;21543;-52
2022/06/19 05:36:11;;;;;;;3.10;2.90;;;;;;;27.32;41.87;101920.64;1664233;85;21543;-51
2022/06/19 05:38:38;;;;;;;2.77;2.58;;;;;;;27.37;41.75;101922.52;1664017;85;21070;-51
2022/06/19 05:41:05;;;;;;;3.55;3.10;;;;;;;27.41;41.62;101920.97;1663743;85;21590;-50
2022/06/19 05:43:34;;;;;;;3.42;2.83;;;;;;;27.45;41.64;101918.44;1672984;85;21113;-51
2022/06/19 05:46:14;;;;;;;3.25;3.02;;;;;;;27.48;41.52;101912.84;1670365;85;21079;-50
2022/06/19 05:48:42;;;;;;;2.92;2.72;;;;;;;27.50;41.49;101920.27;1628418;88;21118;-51
2022/06/19 05:51:16;;;;;;;2.85;2.65;;;;;;;27.51;41.44;101923.33;1628776;88;21083;-51
2022/06/19 05:53:46;;;;;;;4.47;3.05;;;;;;;27.50;41.61;101919.79;1597433;89;21539;-52
2022/06/19 05:56:13;;;;;;;3.25;2.95;;;;;;;27.55;41.13;101918.13;1612300;88;21047;-51
2022/06/19 05:58:41;;;;;;;3.20;2.90;;;;;;;27.58;41.30;101921.89;1610109;88;21082;-51
2022/06/19 06:01:10;;;;;;;2.92;2.72;;;;;;;27.66;41.28;101922.16;1611893;88;21071;-53
2022/06/19 06:03:39;;;;;;;2.77;2.58;;;;;;;27.78;41.01;101923.95;1610293;89;21067;-51
2022/06/19 06:06:09;;;;;;;3.00;2.80;;;;;;;27.94;40.85;101925.83;1612203;88;21603;-50
2022/06/19 06:08:37;;;;;;;3.10;2.80;;;;;;;28.09;40.87;101924.19;1610126;88;21071;-51
2022/06/19 06:11:04;;;;;;;3.20;2.65;;;;;;;28.26;40.61;101922.89;1612295;89;21115;-51
2022/06/19 06:13:31;;;;;;;2.77;2.58;;;;;;;28.40;39.84;101930.70;1610281;88;21560;-56
2022/06/19 06:15:58;;;;;;;3.95;2.85;;;;;;;28.48;39.43;101931.47;1612012;88;21102;-51
2022/06/19 06:18:25;;;;;;;5.25;2.77;;;;;;;28.57;39.34;101926.27;1604577;88;21047;-50
2022/06/19 06:21:04;;;;;;;3.10;2.90;;;;;;;28.74;39.68;101927.14;1612477;87;21142;-51
2022/06/19 06:23:31;;;;;;;2.92;2.62;;;;;;;29.00;39.10;101925.55;1537759;93;21110;-49
2022/06/19 06:26:05;;;;;;;4.40;2.65;;;;;;;29.36;38.13;101925.26;1521984;92;21193;-53
2022/06/19 06:28:33;;;;;;;2.52;2.33;;;;;;;29.71;37.54;101924.53;1518939;92;21162;-52
2022/06/19 06:31:00;;;;;;;2.77;2.15;;;;;;;30.09;37.12;101928.88;1518894;92;21630;-49
2022/06/19 06:33:28;;;;;;;6.22;2.60;;;;;;;30.40;36.07;101917.25;1517878;92;21090;-52
2022/06/19 06:35:55;;;;;;;2.40;2.20;;;;;;;30.67;35.76;101922.53;1505287;93;21171;-53
2022/06/19 06:38:23;;;;;;;2.22;2.00;;;;;;;30.83;35.58;101925.59;1505358;93;21084;-51
2022/06/19 06:40:51;;;;;;;1.72;1.62;;;;;;;30.83;35.34;101922.91;1491506;96;21677;-49
2022/06/19 06:43:19;;;;;;;2.40;2.15;;;;;;;30.77;34.95;101926.14;1516838;92;21042;-53
2022/06/19 06:45:46;;;;;;;2.42;2.22;;;;;;;30.68;34.89;101921.56;1530280;92;21175;-51
2022/06/19 06:48:13;;;;;;;1.85;1.75;;;;;;;30.57;34.73;101924.33;1528814;92;21127;-52
2022/06/19 06:50:40;;;;;;;2.17;1.92;;;;;;;30.42;34.77;101923.34;1575355;88;21086;-49
2022/06/19 06:53:07;;;;;;;2.30;2.20;;;;;;;30.27;34.96;101923.30;1604691;88;21062;-51
2022/06/19 06:55:39;;;;;;;2.15;1.72;;;;;;;30.13;35.70;101921.44;1584154;89;21584;-52
2022/06/19 06:58:06;;;;;;;2.17;2.00;;;;;;;30.00;35.65;101920.29;1633845;86;21356;-51
2022/06/19 07:00:33;;;;;;;2.27;2.02;;;;;;;29.90;36.11;101919.37;1636799;86;21036;-52
2022/06/19 07:03:00;;;;;;;2.12;2.02;;;;;;;29.82;36.61;101916.45;1636125;86;21128;-53
2022/06/19 07:05:28;;;;;;;2.30;2.10;;;;;;;29.78;36.75;101923.05;1639961;86;21024;-54
2022/06/19 07:07:54;;;;;;;2.60;2.10;;;;;;;29.74;36.70;101916.25;1638000;86;21077;-53
2022/06/19 07:10:21;;;;;;;3.77;1.98;;;;;;;29.76;36.76;101923.67;1635945;86;21082;-50
2022/06/19 07:12:48;;;;;;;2.92;2.67;;;;;;;29.78;36.78;101923.05;1635846;86;21099;-52
2022/06/19 07:15:15;;;;;;;2.17;2.00;;;;;;;29.80;36.70;101925.13;1636176;86;21552;-51
2022/06/19 07:17:42;;;;;;;2.17;2.00;;;;;;;29.80;36.91;101923.78;1635547;86;21097;-51
2022/06/19 07:20:10;;;;;;;2.40;1.90;;;;;;;29.77;36.79;101917.34;1677733;82;21644;-51
2022/06/19 07:22:38;;;;;;;2.10;2.00;;;;;;;29.78;36.98;101923.05;1736818;81;21007;-52
2022/06/19 07:25:06;;;;;;;4.10;1.90;;;;;;;29.80;37.55;101925.13;1701034;84;21054;-51
2022/06/19 07:27:34;;;;;;;2.05;1.90;;;;;;;29.88;37.56;101925.36;1704852;84;21034;-52
2022/06/19 07:30:01;;;;;;;2.27;2.08;;;;;;;30.03;37.45;101923.17;1699769;84;21038;-53
2022/06/19 07:32:30;;;;;;;3.02;1.98;;;;;;;30.26;37.38;101928.30;1700292;84;21034;-50
2022/06/19 07:34:57;;;;;;;2.40;1.90;;;;;;;30.47;36.95;101925.14;1701287;84;21459;-53
2022/06/19 07:37:23;;;;;;;2.10;2.00;;;;;;;30.61;36.65;101924.41;1736749;81;21035;-52
2022/06/19 07:39:50;;;;;;;3.00;1.98;;;;;;;30.70;36.33;101922.28;1698820;84;21062;-49
2022/06/19 07:42:17;;;;;;;2.25;2.02;;;;;;;30.73;35.85;101919.34;1698042;84;21022;-53
2022/06/19 07:44:44;;;;;;;4.95;2.12;;;;;;;30.73;35.88;101920.16;1698052;84;21065;-51
2022/06/19 07:50:09;;;;;;;2.10;1.90;;;;;;;30.68;36.04;101921.56;1700045;83;21049;-51
2022/06/19 07:52:45;;;;;;;2.15;2.02;;;;;;;30.61;35.94;101925.76;1698097;84;21006;-50
2022/06/19 07:55:15;;;;;;;2.10;1.90;;;;;;;30.52;36.01;101930.12;1721698;82;21083;-54
2022/06/19 07:57:43;;;;;;;2.37;2.17;;;;;;;30.46;36.15;101932.83;1693858;84;21011;-53
2022/06/19 08:00:16;;;;;;;2.62;2.17;;;;;;;30.39;36.06;101933.02;1695821;83;21620;-50
2022/06/19 08:02:48;;;;;;;1.87;1.77;;;;;;;30.32;36.29;101923.78;1696919;83;20999;-53
2022/06/19 08:05:19;;;;;;;3.40;2.10;;;;;;;30.28;36.93;101926.81;1674511;85;21062;-52
2022/06/19 08:07:48;;;;;;;2.12;1.85;;;;;;;30.25;36.79;101921.73;1648361;86;21042;-51
2022/06/19 08:10:20;;;;;;;2.30;2.15;;;;;;;30.23;37.16;101920.49;1642150;86;21058;-54
2022/06/19 08:12:50;;;;;;;2.02;1.80;;;;;;;30.24;37.19;101922.70;1645655;86;21078;-50
2022/06/19 08:15:19;;;;;;;1.80;1.70;;;;;;;30.23;37.06;101924.52;1647359;86;21070;-51
2022/06/19 08:17:48;;;;;;;2.05;1.90;;;;;;;30.23;36.74;101921.83;1652357;86;21022;-52
2022/06/19 08:20:16;;;;;;;2.95;1.90;;;;;;;30.24;36.83;101923.55;1638034;86;21110;-51
2022/06/19 08:22:43;;;;;;;2.12;1.82;;;;;;;30.23;36.50;101929.89;1644466;87;21094;-52
2022/06/19 08:25:11;;;;;;;2.10;1.90;;;;;;;30.23;36.76;101921.83;1645542;87;21027;-49
2022/06/19 08:27:41;;;;;;;2.00;1.80;;;;;;;30.21;36.86;101922.98;1645426;87;21507;-50
2022/06/19 08:30:13;;;;;;;1.60;1.50;;;;;;;30.17;36.38;101919.67;1637049;87;21053;-53
2022/06/19 08:32:40;;;;;;;2.58;2.22;;;;;;;30.13;36.16;101920.92;1642666;87;21493;-49
2022/06/19 08:35:07;;;;;;;2.10;1.90;;;;;;;30.09;35.96;101922.17;1642472;87;21131;-54
2022/06/19 08:37:35;;;;;;;3.58;2.10;;;;;;;30.08;36.50;101915.59;1645031;87;21121;-49
2022/06/19 08:40:21;;;;;;;2.65;1.90;;;;;;;30.08;36.98;101917.80;1645403;87;21027;-51
2022/06/19 08:43:08;;;;;;;2.12;1.92;;;;;;;30.08;37.34;101917.80;1644060;87;21106;-53
2022/06/19 08:45:56;;;;;;;2.58;1.98;;;;;;;30.09;37.31;101914.12;1572248;89;21088;-52
2022/06/19 08:49:04;;;;;;;1.90;1.80;;;;;;;30.12;37.35;101907.64;1554555;91;21124;-51
2022/06/19 08:51:56;;;;;;;2.27;2.08;;;;;;;30.14;36.95;101913.25;1560515;91;21577;-51
2022/06/19 08:54:55;;;;;;;2.00;1.87;;;;;;;30.11;37.35;101909.47;1531165;93;21072;-52
2022/06/19 08:57:47;;;;;;;2.35;1.90;;;;;;;30.08;37.70;101904.86;1502635;95;21612;-50
2022/06/19 09:00:34;;;;;;;1.70;1.60;;;;;;;30.02;37.51;101907.59;1498004;95;21090;-52
2022/06/19 09:03:25;;;;;;;1.85;1.75;;;;;;;30.00;37.31;101909.55;1479707;97;21092;-50
2022/06/19 09:06:09;;;;;;;1.77;1.67;;;;;;;30.01;37.50;101911.23;1481168;97;21112;-49
2022/06/19 09:08:58;;;;;;;1.85;1.75;;;;;;;30.00;37.10;101910.89;1479753;97;21104;-51
2022/06/19 09:12:03;;;;;;;1.80;1.70;;;;;;;29.97;37.11;101908.94;1509440;94;21153;-52
2022/06/19 09:14:37;;;;;;;2.05;1.90;;;;;;;29.95;37.58;101909.08;1515810;93;21116;-51
2022/06/19 09:17:14;;;;;;;2.12;2.00;;;;;;;29.97;37.68;101907.11;1405307;101;21183;-52
2022/06/19 09:19:53;;;;;;;2.17;1.77;;;;;;;30.01;37.33;101909.90;1418773;98;21628;-53
2022/06/19 09:22:45;;;;;;;2.10;1.75;;;;;;;30.04;36.76;101907.45;1385527;102;21131;-51
2022/06/19 09:25:29;;;;;;;2.70;1.72;;;;;;;30.04;36.60;101905.63;1425868;99;21098;-50
2022/06/19 09:28:04;;;;;;;2.20;1.98;;;;;;;30.09;36.69;101903.89;1426304;99;21086;-50
2022/06/19 09:30:41;;;;;;;1.80;1.70;;;;;;;30.13;36.89;101907.50;1427655;99;21582;-52
2022/06/19 09:33:13;;;;;;;1.90;1.80;;;;;;;30.17;36.50;101904.09;1430123;97;21146;-51
2022/06/19 09:35:48;;;;;;;1.70;1.60;;;;;;;30.22;36.85;101900.02;1470381;97;21183;-50
2022/06/19 09:38:28;;;;;;;1.65;1.55;;;;;;;30.26;36.61;101897.42;1471924;97;21657;-50
2022/06/19 09:40:58;;;;;;;2.15;2.00;;;;;;;30.26;36.51;101896.56;1404723;101;21275;-48
2022/06/19 09:43:41;;;;;;;1.67;1.57;;;;;;;30.26;36.25;101895.22;1405961;101;21188;-50
2022/06/19 09:46:22;;;;;;;1.95;1.77;;;;;;;30.26;36.45;101897.42;1405640;101;21213;-50
2022/06/19 09:49:03;;;;;;;1.92;1.80;;;;;;;30.27;36.16;101888.40;1406455;101;21115;-51
2022/06/19 09:51:41;;;;;;;1.87;1.70;;;;;;;30.27;36.34;101888.40;1362247;104;21114;-51
2022/06/19 09:54:16;;;;;;;1.67;1.57;;;;;;;30.25;36.40;101893.02;1361043;104;21151;-52
2022/06/19 09:57:04;;;;;;;1.90;1.72;;;;;;;30.24;36.22;101896.70;1358135;105;21162;-49
2022/06/19 09:59:54;;;;;;;2.15;1.70;;;;;;;30.22;36.12;101895.98;1358509;105;21196;-49
2022/06/19 10:02:44;;;;;;;1.60;1.50;;;;;;;30.20;36.45;101895.75;1363273;104;21163;-49
2022/06/19 10:05:39;;;;;;;2.33;1.92;;;;;;;30.20;37.09;101895.27;1358718;105;21135;-50
2022/06/19 10:08:17;;;;;;;1.60;1.50;;;;;;;30.22;36.89;101891.95;1360816;105;21143;-49
2022/06/19 10:11:15;;;;;;;1.92;1.62;;;;;;;30.27;36.85;101892.91;1345619;106;21718;-52
2022/06/19 10:14:01;;;;;;;1.60;1.50;;;;;;;30.33;36.39;101893.27;1402567;95;21230;-50
2022/06/19 10:17:01;;;;;;;1.40;1.30;;;;;;;30.38;36.61;101885.64;1486571;95;21148;-51
2022/06/19 10:19:51;;;;;;;2.02;1.60;;;;;;;30.44;36.66;101881.56;1480367;95;21146;-52
2022/06/19 10:22:51;;;;;;;1.62;1.52;;;;;;;30.49;36.13;101880.20;1457867;97;21140;-49
2022/06/19 10:25:29;;;;;;;1.50;1.40;;;;;;;30.53;36.37;101878.94;1455235;97;21578;-50
2022/06/19 10:28:19;;;;;;;1.40;1.30;;;;;;;30.57;36.10;101875.97;1466249;96;21157;-49
2022/06/19 10:31:03;;;;;;;1.42;1.32;;;;;;;30.58;35.77;101880.38;1463693;96;21119;-48
2022/06/19 10:33:56;;;;;;;2.33;1.80;;;;;;;30.59;35.92;101880.71;1444953;98;22294;-51
2022/06/19 10:36:44;;;;;;;1.92;1.80;;;;;;;30.61;35.73;101881.43;1435329;99;21127;-52
2022/06/19 10:39:34;;;;;;;1.42;1.40;;;;;;;30.63;36.36;101880.80;1511271;93;21615;-47
2022/06/19 10:42:21;;;;;;;1.95;1.85;;;;;;;30.62;36.30;101873.74;1500602;94;21080;-51
2022/06/19 10:45:18;;;;;;;1.65;1.55;;;;;;;30.58;36.06;101877.69;1467836;96;21156;-50
2022/06/19 10:48:24;;;;;;;1.60;1.50;;;;;;;30.51;36.03;101875.54;1445898;97;21138;-51
2022/06/19 10:51:26;;;;;;;1.57;1.47;;;;;;;30.48;36.18;101871.77;1462119;96;21156;-52
2022/06/19 10:54:17;;;;;;;3.67;1.85;;;;;;;30.46;36.31;101876.42;1470389;96;21146;-49
2022/06/19 10:57:00;;;;;;;1.50;1.40;;;;;;;30.45;36.10;101868.51;1473700;97;21139;-49
2022/06/19 10:59:27;;;;;;;1.85;1.75;;;;;;;30.45;36.16;101877.42;1474620;96;21144;-50
2022/06/19 11:05:06;;;;;;;1.75;1.65;;;;;;;30.43;36.78;101878.05;1473783;96;21107;-51
2022/06/19 11:07:33;;;;;;;2.12;1.60;;;;;;;30.45;36.65;101880.11;1488016;95;21182;-49
2022/06/19 11:10:17;;;;;;;1.77;1.67;;;;;;;30.45;36.72;101878.77;1494123;95;21097;-48
2022/06/19 11:12:48;;;;;;;2.00;1.45;;;;;;;30.46;36.31;101881.80;1525689;91;21672;-52
2022/06/19 11:15:43;;;;;;;1.72;1.60;;;;;;;30.47;36.41;101878.63;1494845;95;21041;-48
2022/06/19 11:18:21;;;;;;;2.17;1.80;;;;;;;30.48;36.26;101879.83;1518979;91;21159;-48
2022/06/19 11:21:04;;;;;;;3.27;1.60;;;;;;;30.51;36.18;101875.54;1571133;89;21069;-50
2022/06/19 11:23:38;;;;;;;1.80;1.60;;;;;;;30.52;36.11;101876.40;1569225;89;21023;-48
2022/06/19 11:26:12;;;;;;;1.52;1.42;;;;;;;30.52;36.12;101874.54;1644033;85;21514;-49
2022/06/19 11:29:17;;;;;;;1.60;1.50;;;;;;;30.52;36.13;101869.17;1652730;85;21054;-56
2022/06/19 11:32:09;;;;;;;1.60;1.50;;;;;;;30.50;36.09;101871.14;1612374;87;21069;-51
2022/06/19 11:34:44;;;;;;;1.47;1.37;;;;;;;30.52;35.91;101873.72;1611579;88;21152;-52
2022/06/19 11:37:37;;;;;;;1.60;1.50;;;;;;;30.51;36.00;101867.48;1559496;91;21062;-50
2022/06/19 11:40:11;;;;;;;2.22;1.62;;;;;;;30.53;35.82;101875.40;1568669;91;21102;-53
2022/06/19 11:42:51;;;;;;;5.40;1.60;;;;;;;30.51;35.82;101878.23;1562793;91;21058;-53
2022/06/19 11:45:23;;;;;;;2.10;1.30;;;;;;;30.50;35.84;101875.17;1574396;90;21108;-52
2022/06/19 11:48:10;;;;;;;3.17;1.70;;;;;;;30.48;35.68;101873.11;1568369;90;21046;-52
2022/06/19 11:50:46;;;;;;;2.20;1.45;;;;;;;30.48;35.93;101874.45;1547841;92;21550;-49
2022/06/19 11:53:27;;;;;;;1.45;1.35;;;;;;;30.47;35.50;101875.45;1552260;91;21241;-52
2022/06/19 11:56:32;;;;;;;1.60;1.50;;;;;;;30.46;35.70;101874.22;1523509;94;21064;-50
2022/06/19 11:59:04;;;;;;;3.08;1.30;;;;;;;30.45;35.89;101873.39;1486135;96;21588;-57
2022/06/19 12:01:44;;;;;;;1.85;1.40;;;;;;;30.44;36.03;101870.82;1483386;96;21096;-49